sensor_id;sensor_type;location;lat;lon;timestamp;temperature;humidity
13251;DHT22;6692;50.710;7.180;2024-01-07T00:00:58;4.10;99.90
13251;DHT22;6692;50.710;7.180;2024-01-07T00:02:59;4.20;99.90
13251;DHT22;6692;50.710;7.180;2024-01-07T00:05:00;4.20;99.90
13251;DHT22;6692;50.710;7.180;2024-01-07T00:07:00;4.20;99.90
13251;DHT22;6692;50.710;7.180;2024-01-07T00:09:02;4.20;99.90
13251;DHT22;6692;50.710;7.180;2024-01-07T00:11:03;4.20;99.90
13251;DHT22;6692;50.710;7.180;2024-01-07T00:13:04;4.20;99.90
13251;DHT22;6692;50.710;7.180;2024-01-07T00:15:06;4.20;99.90
13251;DHT22;6692;50.710;7.180;2024-01-07T00:17:07;4.20;99.90
13251;DHT22;6692;50.710;7.180;2024-01-07T00:19:08;4.30;99.90
13251;DHT22;6692;50.710;7.180;2024-01-07T00:21:09;4.30;99.90
13251;DHT22;6692;50.710;7.180;2024-01-07T00:23:09;4.30;99.90
13251;DHT22;6692;50.710;7.180;2024-01-07T00:25:10;4.30;99.90
13251;DHT22;6692;50.710;7.180;2024-01-07T00:27:11;4.30;99.90
13251;DHT22;6692;50.710;7.180;2024-01-07T00:29:12;4.20;99.90
13251;DHT22;6692;50.710;7.180;2024-01-07T00:31:13;4.20;99.90
13251;DHT22;6692;50.710;7.180;2024-01-07T00:33:14;4.20;99.90
13251;DHT22;6692;50.710;7.180;2024-01-07T00:35:15;4.20;99.90
13251;DHT22;6692;50.710;7.180;2024-01-07T00:37:16;4.30;99.90
13251;DHT22;6692;50.710;7.180;2024-01-07T00:39:17;4.30;99.90
13251;DHT22;6692;50.710;7.180;2024-01-07T00:41:17;4.30;99.90
13251;DHT22;6692;50.710;7.180;2024-01-07T00:43:19;4.40;99.90
13251;DHT22;6692;50.710;7.180;2024-01-07T00:45:19;4.30;99.90
13251;DHT22;6692;50.710;7.180;2024-01-07T00:47:20;4.40;99.90
13251;DHT22;6692;50.710;7.180;2024-01-07T00:49:21;4.40;99.90
13251;DHT22;6692;50.710;7.180;2024-01-07T00:51:22;4.40;99.90
13251;DHT22;6692;50.710;7.180;2024-01-07T00:53:22;4.40;99.90
13251;DHT22;6692;50.710;7.180;2024-01-07T00:55:24;4.50;99.90
13251;DHT22;6692;50.710;7.180;2024-01-07T00:57:25;4.40;99.90
13251;DHT22;6692;50.710;7.180;2024-01-07T00:59:27;4.50;99.90
13251;DHT22;6692;50.710;7.180;2024-01-07T01:01:27;4.50;99.90
13251;DHT22;6692;50.710;7.180;2024-01-07T01:03:27;4.50;99.90
13251;DHT22;6692;50.710;7.180;2024-01-07T01:05:28;4.50;99.90
13251;DHT22;6692;50.710;7.180;2024-01-07T01:07:29;4.50;99.90
13251;DHT22;6692;50.710;7.180;2024-01-07T01:09:30;4.50;99.90
13251;DHT22;6692;50.710;7.180;2024-01-07T01:11:31;4.50;99.90
13251;DHT22;6692;50.710;7.180;2024-01-07T01:13:32;4.50;99.90
13251;DHT22;6692;50.710;7.180;2024-01-07T01:15:33;4.60;99.90
13251;DHT22;6692;50.710;7.180;2024-01-07T01:17:33;4.60;99.90
13251;DHT22;6692;50.710;7.180;2024-01-07T01:19:34;4.60;99.90
13251;DHT22;6692;50.710;7.180;2024-01-07T01:21:35;4.50;99.90
13251;DHT22;6692;50.710;7.180;2024-01-07T01:23:35;4.50;99.90
13251;DHT22;6692;50.710;7.180;2024-01-07T01:25:36;4.50;99.90
13251;DHT22;6692;50.710;7.180;2024-01-07T01:27:38;4.50;99.90
13251;DHT22;6692;50.710;7.180;2024-01-07T01:29:38;4.50;99.90
13251;DHT22;6692;50.710;7.180;2024-01-07T01:31:39;4.50;99.90
13251;DHT22;6692;50.710;7.180;2024-01-07T01:33:41;4.50;99.90
13251;DHT22;6692;50.710;7.180;2024-01-07T01:35:42;4.60;99.90
13251;DHT22;6692;50.710;7.180;2024-01-07T01:37:43;4.60;99.90
13251;DHT22;6692;50.710;7.180;2024-01-07T01:39:44;4.60;99.90
13251;DHT22;6692;50.710;7.180;2024-01-07T01:41:45;4.60;99.90
13251;DHT22;6692;50.710;7.180;2024-01-07T01:43:46;4.70;99.90
13251;DHT22;6692;50.710;7.180;2024-01-07T01:45:47;4.70;99.90
13251;DHT22;6692;50.710;7.180;2024-01-07T01:47:48;4.70;99.90
13251;DHT22;6692;50.710;7.180;2024-01-07T01:49:48;4.70;99.90
13251;DHT22;6692;50.710;7.180;2024-01-07T01:51:50;4.70;99.90
13251;DHT22;6692;50.710;7.180;2024-01-07T01:53:51;4.70;99.90
13251;DHT22;6692;50.710;7.180;2024-01-07T01:55:52;4.70;99.90
13251;DHT22;6692;50.710;7.180;2024-01-07T01:57:52;4.70;99.90
13251;DHT22;6692;50.710;7.180;2024-01-07T01:59:53;4.70;99.90
13251;DHT22;6692;50.710;7.180;2024-01-07T02:01:54;4.70;99.90
13251;DHT22;6692;50.710;7.180;2024-01-07T02:03:55;4.70;99.90
13251;DHT22;6692;50.710;7.180;2024-01-07T02:05:56;4.70;99.90
13251;DHT22;6692;50.710;7.180;2024-01-07T02:07:57;4.60;99.90
13251;DHT22;6692;50.710;7.180;2024-01-07T02:09:59;4.70;99.90
13251;DHT22;6692;50.710;7.180;2024-01-07T02:12:00;4.60;99.90
13251;DHT22;6692;50.710;7.180;2024-01-07T02:14:00;4.60;99.90
13251;DHT22;6692;50.710;7.180;2024-01-07T02:16:01;4.50;99.90
13251;DHT22;6692;50.710;7.180;2024-01-07T02:18:03;4.50;99.90
13251;DHT22;6692;50.710;7.180;2024-01-07T02:20:04;4.50;99.90
13251;DHT22;6692;50.710;7.180;2024-01-07T02:22:05;4.50;99.90
13251;DHT22;6692;50.710;7.180;2024-01-07T02:24:07;4.40;99.90
13251;DHT22;6692;50.710;7.180;2024-01-07T02:26:08;4.40;99.90
13251;DHT22;6692;50.710;7.180;2024-01-07T02:28:08;4.40;99.90
13251;DHT22;6692;50.710;7.180;2024-01-07T02:30:10;4.40;99.90
13251;DHT22;6692;50.710;7.180;2024-01-07T02:32:11;4.40;99.90
13251;DHT22;6692;50.710;7.180;2024-01-07T02:34:13;4.50;99.90
13251;DHT22;6692;50.710;7.180;2024-01-07T02:36:15;4.40;99.90
13251;DHT22;6692;50.710;7.180;2024-01-07T02:38:14;4.40;99.90
13251;DHT22;6692;50.710;7.180;2024-01-07T02:40:15;4.30;99.90
13251;DHT22;6692;50.710;7.180;2024-01-07T02:42:16;4.30;99.90
13251;DHT22;6692;50.710;7.180;2024-01-07T02:44:16;4.30;99.90
13251;DHT22;6692;50.710;7.180;2024-01-07T02:46:17;4.30;99.90
13251;DHT22;6692;50.710;7.180;2024-01-07T02:48:19;4.40;99.90
13251;DHT22;6692;50.710;7.180;2024-01-07T02:50:20;4.40;99.90
13251;DHT22;6692;50.710;7.180;2024-01-07T02:52:21;4.30;99.90
13251;DHT22;6692;50.710;7.180;2024-01-07T02:54:22;4.40;99.90
13251;DHT22;6692;50.710;7.180;2024-01-07T02:56:23;4.30;99.90
13251;DHT22;6692;50.710;7.180;2024-01-07T02:58:24;4.30;99.90
13251;DHT22;6692;50.710;7.180;2024-01-07T03:00:24;4.30;99.90
13251;DHT22;6692;50.710;7.180;2024-01-07T03:02:26;4.30;99.90
13251;DHT22;6692;50.710;7.180;2024-01-07T03:04:27;4.30;99.90
13251;DHT22;6692;50.710;7.180;2024-01-07T03:06:27;4.30;99.90
13251;DHT22;6692;50.710;7.180;2024-01-07T03:08:28;4.20;99.90
13251;DHT22;6692;50.710;7.180;2024-01-07T03:10:29;4.30;99.90
13251;DHT22;6692;50.710;7.180;2024-01-07T03:12:30;4.30;99.90
13251;DHT22;6692;50.710;7.180;2024-01-07T03:14:32;4.30;99.90
13251;DHT22;6692;50.710;7.180;2024-01-07T03:16:32;4.30;99.90
13251;DHT22;6692;50.710;7.180;2024-01-07T03:18:33;4.30;99.90
13251;DHT22;6692;50.710;7.180;2024-01-07T03:20:34;4.30;99.90
13251;DHT22;6692;50.710;7.180;2024-01-07T03:22:34;4.30;99.90
13251;DHT22;6692;50.710;7.180;2024-01-07T03:24:35;4.40;99.90
13251;DHT22;6692;50.710;7.180;2024-01-07T03:26:36;4.40;99.90
13251;DHT22;6692;50.710;7.180;2024-01-07T03:28:37;4.40;99.90
13251;DHT22;6692;50.710;7.180;2024-01-07T03:30:37;4.40;99.90
13251;DHT22;6692;50.710;7.180;2024-01-07T03:32:39;4.40;99.90
13251;DHT22;6692;50.710;7.180;2024-01-07T03:34:39;4.40;99.90
13251;DHT22;6692;50.710;7.180;2024-01-07T03:36:40;4.30;99.90
13251;DHT22;6692;50.710;7.180;2024-01-07T03:38:41;4.30;99.90
13251;DHT22;6692;50.710;7.180;2024-01-07T03:40:42;4.30;99.90
13251;DHT22;6692;50.710;7.180;2024-01-07T03:42:42;4.30;99.90
13251;DHT22;6692;50.710;7.180;2024-01-07T03:44:43;4.30;99.90
13251;DHT22;6692;50.710;7.180;2024-01-07T03:46:44;4.30;99.90
13251;DHT22;6692;50.710;7.180;2024-01-07T03:48:44;4.30;99.90
13251;DHT22;6692;50.710;7.180;2024-01-07T03:50:45;4.30;99.90
13251;DHT22;6692;50.710;7.180;2024-01-07T03:52:46;4.30;99.90
13251;DHT22;6692;50.710;7.180;2024-01-07T03:54:47;4.30;99.90
13251;DHT22;6692;50.710;7.180;2024-01-07T03:56:48;4.30;99.90
13251;DHT22;6692;50.710;7.180;2024-01-07T03:58:50;4.30;99.90
13251;DHT22;6692;50.710;7.180;2024-01-07T04:00:51;4.30;99.90
13251;DHT22;6692;50.710;7.180;2024-01-07T04:02:52;4.30;99.90
13251;DHT22;6692;50.710;7.180;2024-01-07T04:04:52;4.30;99.90
13251;DHT22;6692;50.710;7.180;2024-01-07T04:06:53;4.30;99.90
13251;DHT22;6692;50.710;7.180;2024-01-07T04:08:54;4.30;99.90
13251;DHT22;6692;50.710;7.180;2024-01-07T04:10:55;4.30;99.90
13251;DHT22;6692;50.710;7.180;2024-01-07T04:12:55;4.30;99.90
13251;DHT22;6692;50.710;7.180;2024-01-07T04:14:56;4.30;99.90
13251;DHT22;6692;50.710;7.180;2024-01-07T04:16:57;4.40;99.90
13251;DHT22;6692;50.710;7.180;2024-01-07T04:18:58;4.40;99.90
13251;DHT22;6692;50.710;7.180;2024-01-07T04:20:59;4.40;99.90
13251;DHT22;6692;50.710;7.180;2024-01-07T04:23:00;4.30;99.90
13251;DHT22;6692;50.710;7.180;2024-01-07T04:25:00;4.30;99.90
13251;DHT22;6692;50.710;7.180;2024-01-07T04:27:01;4.30;99.90
13251;DHT22;6692;50.710;7.180;2024-01-07T04:29:02;4.30;99.90
13251;DHT22;6692;50.710;7.180;2024-01-07T04:31:03;4.20;99.90
13251;DHT22;6692;50.710;7.180;2024-01-07T04:33:04;4.20;99.90
13251;DHT22;6692;50.710;7.180;2024-01-07T04:35:06;4.30;99.90
13251;DHT22;6692;50.710;7.180;2024-01-07T04:37:07;4.20;99.90
13251;DHT22;6692;50.710;7.180;2024-01-07T04:39:08;4.20;99.90
13251;DHT22;6692;50.710;7.180;2024-01-07T04:41:08;4.20;99.90
13251;DHT22;6692;50.710;7.180;2024-01-07T04:43:09;4.20;99.90
13251;DHT22;6692;50.710;7.180;2024-01-07T04:45:10;4.20;99.90
13251;DHT22;6692;50.710;7.180;2024-01-07T04:47:24;4.10;99.90
13251;DHT22;6692;50.710;7.180;2024-01-07T04:49:24;4.10;99.90
13251;DHT22;6692;50.710;7.180;2024-01-07T04:51:25;4.20;99.90
13251;DHT22;6692;50.710;7.180;2024-01-07T04:53:25;4.20;99.90
13251;DHT22;6692;50.710;7.180;2024-01-07T04:55:27;4.30;99.90
13251;DHT22;6692;50.710;7.180;2024-01-07T04:57:28;4.30;99.90
13251;DHT22;6692;50.710;7.180;2024-01-07T04:59:29;4.30;99.90
13251;DHT22;6692;50.710;7.180;2024-01-07T05:01:32;4.30;99.90
13251;DHT22;6692;50.710;7.180;2024-01-07T05:03:31;4.30;99.90
13251;DHT22;6692;50.710;7.180;2024-01-07T05:05:32;4.20;99.90
13251;DHT22;6692;50.710;7.180;2024-01-07T05:07:33;4.30;99.90
13251;DHT22;6692;50.710;7.180;2024-01-07T05:09:34;4.20;99.90
13251;DHT22;6692;50.710;7.180;2024-01-07T05:11:39;4.10;99.90
13251;DHT22;6692;50.710;7.180;2024-01-07T05:13:36;4.10;99.90
13251;DHT22;6692;50.710;7.180;2024-01-07T05:15:37;4.10;99.90
13251;DHT22;6692;50.710;7.180;2024-01-07T05:17:38;4.10;99.90
13251;DHT22;6692;50.710;7.180;2024-01-07T05:19:40;4.10;99.90
13251;DHT22;6692;50.710;7.180;2024-01-07T05:21:40;4.10;99.90
13251;DHT22;6692;50.710;7.180;2024-01-07T05:23:41;4.10;99.90
13251;DHT22;6692;50.710;7.180;2024-01-07T05:25:43;4.10;99.90
13251;DHT22;6692;50.710;7.180;2024-01-07T05:27:43;4.10;99.90
13251;DHT22;6692;50.710;7.180;2024-01-07T05:29:45;4.00;99.90
13251;DHT22;6692;50.710;7.180;2024-01-07T05:31:46;4.00;99.90
13251;DHT22;6692;50.710;7.180;2024-01-07T05:33:47;4.00;99.90
13251;DHT22;6692;50.710;7.180;2024-01-07T05:35:48;4.00;99.90
13251;DHT22;6692;50.710;7.180;2024-01-07T05:37:49;4.00;99.90
13251;DHT22;6692;50.710;7.180;2024-01-07T05:39:51;3.90;99.90
13251;DHT22;6692;50.710;7.180;2024-01-07T05:41:51;3.90;99.90
13251;DHT22;6692;50.710;7.180;2024-01-07T05:43:52;3.90;99.90
13251;DHT22;6692;50.710;7.180;2024-01-07T05:45:53;3.80;99.90
13251;DHT22;6692;50.710;7.180;2024-01-07T05:47:54;3.70;99.90
13251;DHT22;6692;50.710;7.180;2024-01-07T05:49:54;3.60;99.90
13251;DHT22;6692;50.710;7.180;2024-01-07T05:51:55;3.60;99.90
13251;DHT22;6692;50.710;7.180;2024-01-07T05:53:56;3.60;99.90
13251;DHT22;6692;50.710;7.180;2024-01-07T05:55:57;3.50;99.90
13251;DHT22;6692;50.710;7.180;2024-01-07T05:57:58;3.60;99.90
13251;DHT22;6692;50.710;7.180;2024-01-07T05:59:59;3.60;99.90
13251;DHT22;6692;50.710;7.180;2024-01-07T06:02:00;3.60;99.90
13251;DHT22;6692;50.710;7.180;2024-01-07T06:04:00;3.60;99.90
13251;DHT22;6692;50.710;7.180;2024-01-07T06:06:02;3.60;99.90
13251;DHT22;6692;50.710;7.180;2024-01-07T06:08:03;3.60;99.90
13251;DHT22;6692;50.710;7.180;2024-01-07T06:10:05;3.60;99.90
13251;DHT22;6692;50.710;7.180;2024-01-07T06:12:06;3.60;99.90
13251;DHT22;6692;50.710;7.180;2024-01-07T06:14:06;3.70;99.90
13251;DHT22;6692;50.710;7.180;2024-01-07T06:16:07;3.70;99.90
13251;DHT22;6692;50.710;7.180;2024-01-07T06:18:08;3.70;99.90
13251;DHT22;6692;50.710;7.180;2024-01-07T06:20:09;3.50;99.90
13251;DHT22;6692;50.710;7.180;2024-01-07T06:22:10;3.50;99.90
13251;DHT22;6692;50.710;7.180;2024-01-07T06:24:11;3.50;99.90
13251;DHT22;6692;50.710;7.180;2024-01-07T06:26:11;3.50;99.90
13251;DHT22;6692;50.710;7.180;2024-01-07T06:28:12;3.60;99.90
13251;DHT22;6692;50.710;7.180;2024-01-07T06:30:13;3.60;99.90
13251;DHT22;6692;50.710;7.180;2024-01-07T06:32:14;3.60;99.90
13251;DHT22;6692;50.710;7.180;2024-01-07T06:34:15;3.70;99.90
13251;DHT22;6692;50.710;7.180;2024-01-07T06:36:15;3.70;99.90
13251;DHT22;6692;50.710;7.180;2024-01-07T06:38:16;3.80;99.90
13251;DHT22;6692;50.710;7.180;2024-01-07T06:40:17;3.80;99.90
13251;DHT22;6692;50.710;7.180;2024-01-07T06:42:18;3.80;99.90
13251;DHT22;6692;50.710;7.180;2024-01-07T06:44:19;3.80;99.90
13251;DHT22;6692;50.710;7.180;2024-01-07T06:46:20;3.80;99.90
13251;DHT22;6692;50.710;7.180;2024-01-07T06:48:20;3.80;99.90
13251;DHT22;6692;50.710;7.180;2024-01-07T06:50:21;3.90;99.90
13251;DHT22;6692;50.710;7.180;2024-01-07T06:52:22;3.90;99.90
13251;DHT22;6692;50.710;7.180;2024-01-07T06:54:22;3.90;99.90
13251;DHT22;6692;50.710;7.180;2024-01-07T06:56:23;3.90;99.90
13251;DHT22;6692;50.710;7.180;2024-01-07T06:58:24;3.90;99.90
13251;DHT22;6692;50.710;7.180;2024-01-07T07:00:25;3.90;99.90
13251;DHT22;6692;50.710;7.180;2024-01-07T07:02:25;3.90;99.90
13251;DHT22;6692;50.710;7.180;2024-01-07T07:04:26;4.00;99.90
13251;DHT22;6692;50.710;7.180;2024-01-07T07:06:27;4.00;99.90
13251;DHT22;6692;50.710;7.180;2024-01-07T07:08:27;4.00;99.90
13251;DHT22;6692;50.710;7.180;2024-01-07T07:10:28;4.00;99.90
13251;DHT22;6692;50.710;7.180;2024-01-07T07:12:29;3.90;99.90
13251;DHT22;6692;50.710;7.180;2024-01-07T07:14:29;3.90;99.90
13251;DHT22;6692;50.710;7.180;2024-01-07T07:16:30;3.90;99.90
13251;DHT22;6692;50.710;7.180;2024-01-07T07:18:31;3.90;99.90
13251;DHT22;6692;50.710;7.180;2024-01-07T07:20:32;3.80;99.90
13251;DHT22;6692;50.710;7.180;2024-01-07T07:22:33;3.80;99.90
13251;DHT22;6692;50.710;7.180;2024-01-07T07:24:34;3.80;99.90
13251;DHT22;6692;50.710;7.180;2024-01-07T07:26:35;3.80;99.90
13251;DHT22;6692;50.710;7.180;2024-01-07T07:28:36;3.80;99.90
13251;DHT22;6692;50.710;7.180;2024-01-07T07:30:37;3.80;99.90
13251;DHT22;6692;50.710;7.180;2024-01-07T07:32:39;3.80;99.90
13251;DHT22;6692;50.710;7.180;2024-01-07T07:34:39;3.80;99.90
13251;DHT22;6692;50.710;7.180;2024-01-07T07:36:40;3.80;99.90
13251;DHT22;6692;50.710;7.180;2024-01-07T07:38:40;3.80;99.90
13251;DHT22;6692;50.710;7.180;2024-01-07T07:40:41;3.80;99.90
13251;DHT22;6692;50.710;7.180;2024-01-07T07:42:42;3.80;99.90
13251;DHT22;6692;50.710;7.180;2024-01-07T07:44:43;3.80;99.90
13251;DHT22;6692;50.710;7.180;2024-01-07T07:46:43;3.80;99.90
13251;DHT22;6692;50.710;7.180;2024-01-07T07:48:44;3.80;99.90
13251;DHT22;6692;50.710;7.180;2024-01-07T07:50:45;3.80;99.90
13251;DHT22;6692;50.710;7.180;2024-01-07T07:52:46;3.70;99.90
13251;DHT22;6692;50.710;7.180;2024-01-07T07:54:47;3.70;99.90
13251;DHT22;6692;50.710;7.180;2024-01-07T07:56:48;3.70;99.90
13251;DHT22;6692;50.710;7.180;2024-01-07T07:58:49;3.80;99.90
13251;DHT22;6692;50.710;7.180;2024-01-07T08:00:50;3.80;99.90
13251;DHT22;6692;50.710;7.180;2024-01-07T08:02:50;3.80;99.90
13251;DHT22;6692;50.710;7.180;2024-01-07T08:04:51;3.80;99.90
13251;DHT22;6692;50.710;7.180;2024-01-07T08:06:52;3.70;99.90
13251;DHT22;6692;50.710;7.180;2024-01-07T08:08:53;3.70;99.90
13251;DHT22;6692;50.710;7.180;2024-01-07T08:10:53;3.70;99.90
13251;DHT22;6692;50.710;7.180;2024-01-07T08:12:54;3.70;99.90
13251;DHT22;6692;50.710;7.180;2024-01-07T08:14:55;3.70;99.90
13251;DHT22;6692;50.710;7.180;2024-01-07T08:16:56;3.80;99.90
13251;DHT22;6692;50.710;7.180;2024-01-07T08:18:57;3.80;99.90
13251;DHT22;6692;50.710;7.180;2024-01-07T08:20:58;3.80;99.90
13251;DHT22;6692;50.710;7.180;2024-01-07T08:22:58;3.80;99.90
13251;DHT22;6692;50.710;7.180;2024-01-07T08:25:00;3.90;99.90
13251;DHT22;6692;50.710;7.180;2024-01-07T08:27:01;3.80;99.90
13251;DHT22;6692;50.710;7.180;2024-01-07T08:29:01;3.90;99.90
13251;DHT22;6692;50.710;7.180;2024-01-07T08:31:02;4.00;99.90
13251;DHT22;6692;50.710;7.180;2024-01-07T08:33:04;4.00;99.90
13251;DHT22;6692;50.710;7.180;2024-01-07T08:35:05;4.00;99.90
13251;DHT22;6692;50.710;7.180;2024-01-07T08:37:07;4.00;99.90
13251;DHT22;6692;50.710;7.180;2024-01-07T08:39:07;3.90;99.90
13251;DHT22;6692;50.710;7.180;2024-01-07T08:41:07;3.90;99.90
13251;DHT22;6692;50.710;7.180;2024-01-07T08:43:08;3.90;99.90
13251;DHT22;6692;50.710;7.180;2024-01-07T08:45:09;3.90;99.90
13251;DHT22;6692;50.710;7.180;2024-01-07T08:47:09;3.90;99.90
13251;DHT22;6692;50.710;7.180;2024-01-07T08:49:10;3.90;99.90
13251;DHT22;6692;50.710;7.180;2024-01-07T08:51:11;3.90;99.90
13251;DHT22;6692;50.710;7.180;2024-01-07T08:53:12;3.80;99.90
13251;DHT22;6692;50.710;7.180;2024-01-07T08:55:13;3.80;99.90
13251;DHT22;6692;50.710;7.180;2024-01-07T08:57:13;3.90;99.90
13251;DHT22;6692;50.710;7.180;2024-01-07T08:59:14;3.80;99.90
13251;DHT22;6692;50.710;7.180;2024-01-07T09:01:15;3.90;99.90
13251;DHT22;6692;50.710;7.180;2024-01-07T09:03:15;3.90;99.90
13251;DHT22;6692;50.710;7.180;2024-01-07T09:05:16;3.90;99.90
13251;DHT22;6692;50.710;7.180;2024-01-07T09:07:18;3.90;99.90
13251;DHT22;6692;50.710;7.180;2024-01-07T09:09:18;3.90;99.90
13251;DHT22;6692;50.710;7.180;2024-01-07T09:11:20;3.90;99.90
13251;DHT22;6692;50.710;7.180;2024-01-07T09:13:21;4.00;99.90
13251;DHT22;6692;50.710;7.180;2024-01-07T09:15:22;3.90;99.90
13251;DHT22;6692;50.710;7.180;2024-01-07T09:17:23;4.00;99.90
13251;DHT22;6692;50.710;7.180;2024-01-07T09:19:23;4.00;99.90
13251;DHT22;6692;50.710;7.180;2024-01-07T09:21:24;4.00;99.90
13251;DHT22;6692;50.710;7.180;2024-01-07T09:23:26;3.90;99.90
13251;DHT22;6692;50.710;7.180;2024-01-07T09:25:26;3.90;99.90
13251;DHT22;6692;50.710;7.180;2024-01-07T09:27:28;3.90;99.90
13251;DHT22;6692;50.710;7.180;2024-01-07T09:29:29;3.90;99.90
13251;DHT22;6692;50.710;7.180;2024-01-07T09:31:29;4.00;99.90
13251;DHT22;6692;50.710;7.180;2024-01-07T09:33:31;3.90;99.90
13251;DHT22;6692;50.710;7.180;2024-01-07T09:35:32;4.00;99.90
13251;DHT22;6692;50.710;7.180;2024-01-07T09:37:33;3.90;99.90
13251;DHT22;6692;50.710;7.180;2024-01-07T09:39:38;3.90;99.90
13251;DHT22;6692;50.710;7.180;2024-01-07T09:41:35;4.00;99.90
13251;DHT22;6692;50.710;7.180;2024-01-07T09:43:36;4.00;99.90
13251;DHT22;6692;50.710;7.180;2024-01-07T09:45:38;4.00;99.90
13251;DHT22;6692;50.710;7.180;2024-01-07T09:47:37;4.00;99.90
13251;DHT22;6692;50.710;7.180;2024-01-07T09:49:39;4.00;99.90
13251;DHT22;6692;50.710;7.180;2024-01-07T09:51:40;4.00;99.90
13251;DHT22;6692;50.710;7.180;2024-01-07T09:53:41;4.00;99.90
13251;DHT22;6692;50.710;7.180;2024-01-07T09:55:51;4.00;99.90
13251;DHT22;6692;50.710;7.180;2024-01-07T09:57:48;4.00;99.90
13251;DHT22;6692;50.710;7.180;2024-01-07T09:59:48;4.10;99.90
13251;DHT22;6692;50.710;7.180;2024-01-07T10:01:49;4.20;99.90
13251;DHT22;6692;50.710;7.180;2024-01-07T10:03:51;4.20;99.90
13251;DHT22;6692;50.710;7.180;2024-01-07T10:05:51;4.20;99.90
13251;DHT22;6692;50.710;7.180;2024-01-07T10:07:52;4.10;99.90
13251;DHT22;6692;50.710;7.180;2024-01-07T10:09:53;4.10;99.90
13251;DHT22;6692;50.710;7.180;2024-01-07T10:11:54;4.10;99.90
13251;DHT22;6692;50.710;7.180;2024-01-07T10:13:55;4.20;99.90
13251;DHT22;6692;50.710;7.180;2024-01-07T10:15:56;4.20;99.90
13251;DHT22;6692;50.710;7.180;2024-01-07T10:18:03;4.30;99.90
13251;DHT22;6692;50.710;7.180;2024-01-07T10:20:05;4.30;99.90
13251;DHT22;6692;50.710;7.180;2024-01-07T10:22:06;4.30;99.90
13251;DHT22;6692;50.710;7.180;2024-01-07T10:24:07;4.30;99.90
13251;DHT22;6692;50.710;7.180;2024-01-07T10:26:07;4.30;99.90
13251;DHT22;6692;50.710;7.180;2024-01-07T10:28:08;4.30;99.90
13251;DHT22;6692;50.710;7.180;2024-01-07T10:30:09;4.20;99.90
13251;DHT22;6692;50.710;7.180;2024-01-07T10:32:10;4.30;99.90
13251;DHT22;6692;50.710;7.180;2024-01-07T10:34:11;4.20;99.90
13251;DHT22;6692;50.710;7.180;2024-01-07T10:36:12;4.20;99.90
13251;DHT22;6692;50.710;7.180;2024-01-07T10:38:13;4.20;99.90
13251;DHT22;6692;50.710;7.180;2024-01-07T10:40:13;4.30;99.90
13251;DHT22;6692;50.710;7.180;2024-01-07T10:42:14;4.20;99.90
13251;DHT22;6692;50.710;7.180;2024-01-07T10:44:16;4.30;99.90
13251;DHT22;6692;50.710;7.180;2024-01-07T10:46:16;4.30;99.90
13251;DHT22;6692;50.710;7.180;2024-01-07T10:48:17;4.40;99.90
13251;DHT22;6692;50.710;7.180;2024-01-07T10:50:18;4.40;99.90
13251;DHT22;6692;50.710;7.180;2024-01-07T10:52:19;4.30;99.90
13251;DHT22;6692;50.710;7.180;2024-01-07T10:54:20;4.30;99.90
13251;DHT22;6692;50.710;7.180;2024-01-07T10:56:23;4.30;99.90
13251;DHT22;6692;50.710;7.180;2024-01-07T10:58:23;4.30;99.90
13251;DHT22;6692;50.710;7.180;2024-01-07T11:00:24;4.40;99.90
13251;DHT22;6692;50.710;7.180;2024-01-07T11:02:25;4.40;99.90
13251;DHT22;6692;50.710;7.180;2024-01-07T11:04:49;4.50;99.90
13251;DHT22;6692;50.710;7.180;2024-01-07T11:06:49;4.50;99.90
13251;DHT22;6692;50.710;7.180;2024-01-07T11:08:52;4.50;99.90
13251;DHT22;6692;50.710;7.180;2024-01-07T11:10:49;4.40;99.90
13251;DHT22;6692;50.710;7.180;2024-01-07T11:12:54;4.40;99.90
13251;DHT22;6692;50.710;7.180;2024-01-07T11:14:54;4.40;99.90
13251;DHT22;6692;50.710;7.180;2024-01-07T11:16:55;4.40;99.90
13251;DHT22;6692;50.710;7.180;2024-01-07T11:18:56;4.40;99.90
13251;DHT22;6692;50.710;7.180;2024-01-07T11:21:00;4.50;99.90
13251;DHT22;6692;50.710;7.180;2024-01-07T11:27:29;4.50;99.90
13251;DHT22;6692;50.710;7.180;2024-01-07T11:29:31;4.50;99.90
13251;DHT22;6692;50.710;7.180;2024-01-07T11:33:49;4.50;99.90
13251;DHT22;6692;50.710;7.180;2024-01-07T11:35:55;4.50;99.90
13251;DHT22;6692;50.710;7.180;2024-01-07T11:37:55;4.50;99.90
13251;DHT22;6692;50.710;7.180;2024-01-07T11:39:56;4.50;99.90
13251;DHT22;6692;50.710;7.180;2024-01-07T11:41:58;4.50;99.90
13251;DHT22;6692;50.710;7.180;2024-01-07T11:43:59;4.50;99.90
13251;DHT22;6692;50.710;7.180;2024-01-07T11:45:59;4.40;99.90
13251;DHT22;6692;50.710;7.180;2024-01-07T11:48:00;4.40;99.90
13251;DHT22;6692;50.710;7.180;2024-01-07T11:50:01;4.40;99.90
13251;DHT22;6692;50.710;7.180;2024-01-07T11:52:03;4.30;99.90
13251;DHT22;6692;50.710;7.180;2024-01-07T11:54:03;4.30;99.90
13251;DHT22;6692;50.710;7.180;2024-01-07T11:56:04;4.30;99.90
13251;DHT22;6692;50.710;7.180;2024-01-07T11:58:05;4.40;99.90
13251;DHT22;6692;50.710;7.180;2024-01-07T12:00:07;4.40;99.90
13251;DHT22;6692;50.710;7.180;2024-01-07T12:02:08;4.40;99.90
13251;DHT22;6692;50.710;7.180;2024-01-07T12:04:09;4.40;99.90
13251;DHT22;6692;50.710;7.180;2024-01-07T12:06:10;4.30;99.90
13251;DHT22;6692;50.710;7.180;2024-01-07T12:08:13;4.30;99.90
13251;DHT22;6692;50.710;7.180;2024-01-07T12:10:15;4.30;99.90
13251;DHT22;6692;50.710;7.180;2024-01-07T12:12:26;4.30;99.90
13251;DHT22;6692;50.710;7.180;2024-01-07T12:14:32;4.10;99.90
13251;DHT22;6692;50.710;7.180;2024-01-07T12:16:33;4.20;99.90
13251;DHT22;6692;50.710;7.180;2024-01-07T12:18:36;4.10;99.90
13251;DHT22;6692;50.710;7.180;2024-01-07T12:20:34;4.10;99.90
13251;DHT22;6692;50.710;7.180;2024-01-07T12:22:37;4.10;99.90
13251;DHT22;6692;50.710;7.180;2024-01-07T12:24:38;4.10;99.90
13251;DHT22;6692;50.710;7.180;2024-01-07T12:26:38;4.20;99.90
13251;DHT22;6692;50.710;7.180;2024-01-07T12:28:39;4.10;99.90
13251;DHT22;6692;50.710;7.180;2024-01-07T12:30:41;4.20;99.90
13251;DHT22;6692;50.710;7.180;2024-01-07T12:32:41;4.10;99.90
13251;DHT22;6692;50.710;7.180;2024-01-07T12:34:42;4.10;99.90
13251;DHT22;6692;50.710;7.180;2024-01-07T12:36:43;4.10;99.90
13251;DHT22;6692;50.710;7.180;2024-01-07T12:38:43;4.10;99.90
13251;DHT22;6692;50.710;7.180;2024-01-07T12:40:44;4.10;99.90
13251;DHT22;6692;50.710;7.180;2024-01-07T12:42:45;4.10;99.90
13251;DHT22;6692;50.710;7.180;2024-01-07T12:44:46;4.10;99.90
13251;DHT22;6692;50.710;7.180;2024-01-07T12:46:47;4.10;99.90
13251;DHT22;6692;50.710;7.180;2024-01-07T12:48:48;4.10;99.90
13251;DHT22;6692;50.710;7.180;2024-01-07T12:50:49;4.00;99.90
13251;DHT22;6692;50.710;7.180;2024-01-07T12:52:49;4.10;99.90
13251;DHT22;6692;50.710;7.180;2024-01-07T12:54:50;4.10;99.90
13251;DHT22;6692;50.710;7.180;2024-01-07T12:56:51;4.00;99.90
13251;DHT22;6692;50.710;7.180;2024-01-07T12:58:52;4.00;99.90
13251;DHT22;6692;50.710;7.180;2024-01-07T13:00:53;3.90;99.90
13251;DHT22;6692;50.710;7.180;2024-01-07T13:02:55;4.00;99.90
13251;DHT22;6692;50.710;7.180;2024-01-07T13:04:55;4.00;99.90
13251;DHT22;6692;50.710;7.180;2024-01-07T13:06:56;3.90;99.90
13251;DHT22;6692;50.710;7.180;2024-01-07T13:08:57;3.90;99.90
13251;DHT22;6692;50.710;7.180;2024-01-07T13:10:57;3.90;99.90
13251;DHT22;6692;50.710;7.180;2024-01-07T13:12:58;3.80;99.90
13251;DHT22;6692;50.710;7.180;2024-01-07T13:14:59;3.80;99.90
13251;DHT22;6692;50.710;7.180;2024-01-07T13:16:59;3.70;99.90